Tiempo atmosférico en la estación meteorológica de Elgeta, Gipuzkoa (470 m.)

Fecha
DESCASC
Temp. máxima en grados centígrados (hora)
DESCASC
Temp. mínima en grados centígrados (hora)
DESCASC
Temp. media en grados centígrados
DESCASC
Racha de viento máxima en m/sg (hora)
DESCASC
Velocidad máxima media en intervalos de 10 minutos(hora)
DESCASC
Precipitaciones diarias en mm
DESCASC
Precipitaciones de 00:00 a 06:00 en mm
DESCASC
Precipitaciones de 06:00 a 12:00 en mm
DESCASC
Precipitaciones de 12:00 a 18:00 en mm
DESCASC
Precipitaciones de 18:00 a 24:00 en mm
DESCASC
10-12-2017 14.1 (23:59) 9.2 (02:00) 11.7 15.56 (23:20) 7.5 (23:20) 0 0 0 0 0
09-12-2017 9.9 (23:40) 3.8 (06:30) 6.8 6.39 (21:50) 2.5 (20:30) 0 0 0 0 0
08-12-2017 7.7 (00:40) 5.6 (06:50) 6.6 5.83 (15:20) 2.5 (15:30) 0 0 0 0 0
07-12-2017 10.2 (14:20) 2.2 (00:00) 6.2 4.72 (02:50) 2.78 (03:00) 0.2 0 0 0.2 0
06-12-2017 7.4 (14:20) 0.1 (00:00) 3.8 3.89 (22:30) 2.5 (22:30) 0 0 0 0 0
05-12-2017 7.2 (14:20) 0.6 (00:00) 3.9 3.33 (22:50) 2.5 (22:50) 0 0 0 0 0
04-12-2017 6 (15:20) 2.1 (00:00) 4 4.17 (00:50) 2.22 (05:20) 16 8.8 7 0.2 0
03-12-2017 3.8 (23:59) -2.1 (-00:0) 0.9 4.44 (23:50) 2.5 (12:00) 12.6 1.2 0 4.8 6.6
02-12-2017 1.9 (22:30) -0.1 (00:00) 0.9 8.33 (01:40) 4.17 (01:10) 19.2 2.4 2.2 8.6 6
01-12-2017 3.7 (01:40) -0.7 (-00:0) 1.5 10 (05:00) 4.17 (07:10) 36.2 18.8 12.6 3.2 1.6
30-11-2017 4.5 (15:10) 0.5 (00:00) 2.5 8.61 (16:40) 3.89 (17:00) 22 6.2 3.2 3.2 9.4
29-11-2017 5.8 (00:00) 1.5 (00:00) 3.7 6.39 (15:30) 2.5 (15:20) 20.4 2 6.6 7.2 4.6
28-11-2017 10.9 (14:10) 1.6 (00:00) 6.2 6.94 (19:40) 2.78 (22:50) 4.8 0 0 0 4.8
27-11-2017 8.1 (15:40) 2.3 (00:00) 5.2 3.89 (11:00) 2.5 (10:50) 0.2 0 0 0.2 0
26-11-2017 7.8 (14:20) 3 (00:00) 5.4 7.78 (00:10) 2.78 (00:10) 0 0 0 0 0
25-11-2017 10.4 (00:20) 3.3 (00:00) 6.8 10.56 (02:30) 3.33 (23:59) 0 0 0 0 0
24-11-2017 16.4 (03:00) 10.3 (00:00) 13.3 10.83 (07:40) 3.06 (02:50) 0 0 0 0 0
23-11-2017 18.5 (15:40) 13.2 (00:00) 15.8 10 (01:20) 3.06 (03:50) 0 0 0 0 0
22-11-2017 17.9 (14:20) 8.7 (00:00) 13.3 9.17 (21:20) 4.17 (21:10) 0 0 0 0 0
21-11-2017 15.1 (14:20) 6.5 (00:00) 10.8 5 (23:59) 2.22 (02:30) 0 0 0 0 0
20-11-2017 15.1 (14:20) 3.2 (00:00) 9.2 3.89 (07:30) 2.78 (08:10) 0 0 0 0 0
19-11-2017 10.8 (14:30) 1.8 (00:00) 6.3 3.89 (10:10) 2.5 (11:30) 0 0 0 0 0
18-11-2017 12 (14:20) 4.3 (00:00) 8.2 5 (14:40) 1.67 (14:40) 0 0 0 0 0
17-11-2017 13.8 (14:20) 4.5 (00:00) 9.2 3.61 (14:00) 1.94 (11:10) 0 0 0 0 0
16-11-2017 14.3 (14:20) 3.5 (00:00) 8.9 4.72 (13:00) 3.06 (05:50) 0 0 0 0 0
15-11-2017 11.2 (14:30) 0.7 (00:00) 5.9 3.33 (09:20) 2.22 (08:20) 0 0 0 0 0

Gráficas

Temp. máximas Temp. mínimas Temp. medias Precipitaciones Rachas de viento máximas Velocidades máximas media en intervalos de 10 minutos

Datos horarios

Fecha y hora oficial Temperatura (ºC) Velocidad del viento (km/h) Dirección del viento Racha (km/h) Dirección de racha Precipitación (mm) Presión (hPa) Tendencia (hPa) Humedad (%)
2017-12-14 23:00:00 7.9 6 Noroeste 18 Noroeste 0 -- -- 100
2017-12-14 22:00:00 8.1 6 Norte 31 Noroeste 1.6 -- -- 100
2017-12-14 21:00:00 8.9 7 Noroeste 20 Oeste 1.6 -- -- 100
2017-12-14 20:00:00 9.1 7 Noroeste 22 Norte 0 -- -- 100
2017-12-14 19:00:00 9.5 6 Norte 17 Oeste 0 -- -- 100
2017-12-14 18:00:00 10 4 Noroeste 11 Oeste 0 -- -- 99
2017-12-14 17:00:00 10.4 3 Noroeste 8 Noroeste 0 -- -- 97
2017-12-14 16:00:00 11.1 4 Noroeste 13 Oeste 0 -- -- 95
2017-12-14 15:00:00 11.5 5 Noroeste 15 Noroeste 0 -- -- 90
2017-12-14 14:00:00 12.4 3 Noroeste 9 Oeste 0 -- -- 86
2017-12-14 13:00:00 10.6 3 Sur 10 Sudeste 0 -- -- 99
2017-12-14 12:00:00 9.5 2 Sur 8 Sudeste 0 -- -- 100
2017-12-14 11:00:00 9.3 3 Sudeste 8 Sudeste 0 -- -- 100
2017-12-14 10:00:00 8.5 2 Norte 6 Norte 0.4 -- -- 100
2017-12-14 09:00:00 8.4 2 Este 11 Noroeste 1 -- -- 100
2017-12-14 08:00:00 8.6 6 Norte 24 Noroeste 3 -- -- 100
2017-12-14 07:00:00 8.5 3 Norte 10 Norte 2.4 -- -- 100
2017-12-14 06:00:00 8.4 5 Noroeste 18 Noroeste 1.4 -- -- 100
2017-12-14 05:00:00 8.5 5 Norte 17 Norte 3 -- -- 100
2017-12-14 04:00:00 8.5 3 Norte 8 Noroeste 2.6 -- -- 100
2017-12-14 03:00:00 8.3 2 Noroeste 6 Oeste 0.6 -- -- 100
2017-12-14 02:00:00 8.4 2 Nordeste 8 Oeste 0.4 -- -- 100
2017-12-14 01:00:00 8.6 2 Sur 14 Noroeste 0.4 -- -- 100
2017-12-14 00:00:00 8.3 3 Nordeste 10 Sudeste 0.4 -- -- 100
2017-12-13 23:00:00 8.5 2 Sudeste 12 Este 1.2 -- -- 100
2017-12-13 22:00:00 9.2 5 Norte 26 Noroeste 0.4 -- -- 92
2017-12-13 21:00:00 8.9 5 Norte 14 Este 0 -- -- 90
2017-12-13 20:00:00 8.9 4 Noroeste 14 Nordeste 0 -- -- 88
2017-12-13 19:00:00 9.7 5 Este 19 Noroeste 0 -- -- 76
2017-12-13 18:00:00 9.4 8 Noroeste 27 Oeste 0 -- -- 75
2017-12-13 17:00:00 8.7 3 Este 14 Este 0 -- -- 78
2017-12-13 16:00:00 9.6 6 Este 19 Sudeste 0 -- -- 73
2017-12-13 15:00:00 9.4 6 Sudeste 14 Sudeste 0 -- -- 72
2017-12-13 14:00:00 9.2 3 Norte 14 Sudoeste 0 -- -- 76
2017-12-13 13:00:00 8.4 5 Sudoeste 20 Sudoeste 0 -- -- 77
2017-12-13 12:00:00 7.3 4 Nordeste 14 Noroeste 0 -- -- 80
2017-12-13 11:00:00 6.7 4 Este 9 Este 0 -- -- 83
2017-12-13 10:00:00 6 3 Este 11 Este 0 -- -- 84
2017-12-13 09:00:00 5.7 4 Sudeste 13 Nordeste 0 -- -- 84
2017-12-13 08:00:00 5.3 4 Noroeste 14 Oeste 0.2 -- -- 90
2017-12-13 07:00:00 5.4 5 Sur 19 Oeste 0 -- -- 85
2017-12-13 06:00:00 4.5 3 Noroeste 14 Oeste 0 -- -- 86
2017-12-13 05:00:00 3.8 6 Sudeste 13 Sudeste 0 -- -- 87
2017-12-13 04:00:00 4.2 4 Sudeste 16 Sudeste 0 -- -- 82
2017-12-13 03:00:00 3 5 Sudoeste 13 Sudeste 0 -- -- 92
2017-12-13 02:00:00 3.3 7 Sudeste 13 Sudeste 0 -- -- 94
2017-12-13 01:00:00 2.6 4 Sur 8 Sudeste 0 -- -- 97
2017-12-13 00:00:00 2.7 4 Sur 8 Sudeste 0 -- -- 95
2017-12-12 23:00:00 3.2 4 Sur 9 Sudeste 0 -- -- 93
2017-12-12 22:00:00 3.8 4 Sur 8 Sudeste 0 -- -- 96
2017-12-12 21:00:00 3.6 3 Sur 6 Sudeste 0 -- -- 98
2017-12-12 20:00:00 3.5 4 Sur 6 Sur 0 -- -- 98
2017-12-12 19:00:00 3.6 0 Calma 6 Sudoeste 0 -- -- 98
2017-12-12 18:00:00 4.1 3 Oeste 12 Noroeste 0 -- -- 95
2017-12-12 17:00:00 5.2 4 Noroeste 18 Noroeste 0 -- -- 90
2017-12-12 16:00:00 5.7 6 Noroeste 14 Noroeste 0 -- -- 87
2017-12-12 15:00:00 6.1 5 Noroeste 16 Oeste 0 -- -- 85
2017-12-12 14:00:00 6 6 Oeste 14 Oeste 0 -- -- 87
2017-12-12 13:00:00 4.5 2 Noroeste 9 Sudeste 0 -- -- 100
2017-12-12 12:00:00 2.9 3 Sudeste 9 Sudeste 0 -- -- 100
2017-12-12 11:00:00 2 2 Sudeste 6 Sur 0 -- -- 100
2017-12-12 10:00:00 1.4 2 Sur 10 Sudeste 0 -- -- 100
2017-12-12 09:00:00 1 2 Sudeste 21 Oeste 0.2 -- -- 100
2017-12-12 08:00:00 1.6 8 Noroeste 23 Oeste 0.2 -- -- 100
2017-12-12 07:00:00 0.4 3 Oeste 6 Sudoeste 0 -- -- 100
2017-12-12 06:00:00 0.4 2 Sudoeste 12 Sur 0 -- -- 100
2017-12-12 05:00:00 0.6 3 Oeste 9 Sur 0.6 -- -- 100
2017-12-12 04:00:00 0.8 7 Sudeste 13 Noroeste 0.4 -- -- 100
2017-12-12 03:00:00 1 4 Nordeste 13 Sur 0.8 -- -- 100
2017-12-12 02:00:00 0.8 2 Sur 19 Oeste 2.6 -- -- 100
2017-12-12 01:00:00 1.6 8 Noroeste 28 Oeste 4.2 -- -- 100
2017-12-12 00:00:00 2 7 Noroeste 23 Noroeste 1.4 -- -- 100
2017-12-11 23:00:00 2.5 6 Noroeste 23 Norte 1.4 -- -- 100
2017-12-11 22:00:00 2.5 12 Noroeste 31 Noroeste 1 -- -- 100
2017-12-11 21:00:00 2.9 6 Noroeste 27 Noroeste 1.6 -- -- 100
2017-12-11 20:00:00 3.1 7 Norte 19 Noroeste 1 -- -- 100
2017-12-11 19:00:00 2.9 4 Norte 28 Oeste 1 -- -- 100
2017-12-11 18:00:00 3.3 12 Noroeste 41 Noroeste 1.4 -- -- 99
2017-12-11 17:00:00 4.5 5 Norte 27 Nordeste 0.2 -- -- 98
2017-12-11 16:00:00 5 12 Norte 32 Oeste 0.6 -- -- 95
2017-12-11 15:00:00 7.4 5 Norte 26 Noroeste 0 -- -- 82
2017-12-11 14:00:00 7.8 11 Norte 38 Noroeste 0.2 -- -- 79
2017-12-11 13:00:00 7.7 5 Norte 16 Noroeste 0 -- -- 81
2017-12-11 12:00:00 6 3 Oeste 12 Sur 0 -- -- 95
2017-12-11 11:00:00 -- 5 Sudeste 9 Sur 0 -- -- --
2017-12-11 10:00:00 4 4 Sur 12 Sudeste 0.2 -- -- 100
2017-12-11 09:00:00 4.5 3 Sudoeste 11 Sudeste 0.2 -- -- 100
2017-12-11 08:00:00 4.4 2 Noroeste 15 Norte 0.2 -- -- 100
2017-12-11 07:00:00 4.4 0 Calma 17 Norte 1 -- -- 100
2017-12-11 06:00:00 5 12 Norte 28 Noroeste 3.6 -- -- 100
2017-12-11 05:00:00 6.6 3 Norte 15 Noroeste 1.6 -- -- 100
2017-12-11 04:00:00 6.7 4 Sur 17 Nordeste 2.6 -- -- 100
2017-12-11 03:00:00 6.8 7 Noroeste 31 Noroeste 3.2 -- -- 100
2017-12-11 02:00:00 9.5 8 Noroeste 68 Noroeste 1.2 -- -- 90
2017-12-11 01:00:00 14.2 21 Norte 57 Noroeste 0.2 -- -- 64
2017-12-11 00:00:00 14.1 19 Nordeste 56 Norte 0 -- -- 66
2017-12-10 23:00:00 13.9 19 Este 55 Este 0 -- -- 67
2017-12-10 22:00:00 13.6 15 Este 51 Este 0 -- -- 71
2017-12-10 21:00:00 12.9 17 Norte 39 Nordeste 0 -- -- 78
2017-12-10 20:00:00 11.9 15 Norte 36 Norte 0 -- -- 90
2017-12-10 19:00:00 10.2 9 Norte 35 Noroeste 0 -- -- 100
2017-12-10 18:00:00 10.1 4 Norte 24 Noroeste 0 -- -- 100
2017-12-10 17:00:00 12.7 14 Norte 37 Norte 0 -- -- 84
2017-12-10 16:00:00 13.3 9 Norte 27 Sudoeste 0 -- -- 78
2017-12-10 15:00:00 13.4 14 Nordeste 39 Norte 0 -- -- 75
2017-12-10 14:00:00 13.1 14 Norte 32 Norte 0 -- -- 77
2017-12-10 13:00:00 12.8 11 Norte 25 Norte 0 -- -- 78
2017-12-10 12:00:00 12.5 10 Sur 37 Sudeste 0 -- -- 78
2017-12-10 11:00:00 12.1 8 Este 29 Este 0 -- -- 78
2017-12-10 10:00:00 12.3 12 Noroeste 36 Oeste 0 -- -- 74
2017-12-10 09:00:00 11.8 7 Nordeste 28 Noroeste 0 -- -- 76
2017-12-10 08:00:00 11.1 5 Este 20 Norte 0 -- -- 81
2017-12-10 07:00:00 10.2 5 Oeste 18 Norte 0 -- -- 89
2017-12-10 06:00:00 9.9 5 Sudeste 15 Este 0 -- -- 91
2017-12-10 05:00:00 9.6 5 Nordeste 13 Sudeste 0 -- -- 95
2017-12-10 04:00:00 9.9 4 Sudeste 11 Este 0 -- -- 96
2017-12-10 03:00:00 9.3 3 Sur 15 Noroeste 0 -- -- 100
2017-12-10 02:00:00 9.2 5 Noroeste 15 Nordeste 0 -- -- 100
2017-12-10 01:00:00 9.4 3 Sudoeste 16 Oeste 0 -- -- 100
2017-12-10 00:00:00 9.7 5 Sur 18 Oeste 0 -- -- 100
2017-12-09 23:00:00 9.2 6 Sur 15 Sudeste 0 -- -- 100
2017-12-09 22:00:00 8.8 3 Sudoeste 23 Sudeste 0 -- -- 100
2017-12-09 21:00:00 7.3 6 Sudeste 17 Sudeste 0 -- -- 100
2017-12-09 20:00:00 7 6 Sudeste 13 Sudeste 0 -- -- 100
2017-12-09 19:00:00 6.7 6 Sudeste 13 Sudeste 0 -- -- 100
2017-12-09 18:00:00 6.4 2 Sur 9 Sudeste 0 -- -- 100
2017-12-09 17:00:00 6.5 4 Sudeste 13 Sudeste 0 -- -- 99
2017-12-09 16:00:00 6.9 6 Sudeste 12 Sudeste 0 -- -- 94
2017-12-09 15:00:00 7.2 5 Sudeste 11 Sudeste 0 -- -- 95
2017-12-09 14:00:00 7.1 5 Sudeste 10 Sudeste 0 -- -- 97
2017-12-09 13:00:00 6.8 5 Sudeste 10 Sudeste 0 -- -- 100
2017-12-09 12:00:00 5.8 4 Sudeste 9 Sudeste 0 -- -- 100
2017-12-09 11:00:00 5.1 3 Sudeste 6 Sudeste 0 -- -- 100
2017-12-09 10:00:00 4.4 0 Calma 5 Sudeste 0 -- -- 100
2017-12-09 09:00:00 4.1 3 Sudeste 7 Sur 0 -- -- 100
2017-12-09 08:00:00 4.2 3 Sur 8 Oeste 0 -- -- 100
2017-12-09 07:00:00 3.9 2 Noroeste 4 Oeste 0 -- -- 100
2017-12-09 06:00:00 4.2 3 Oeste 11 Noroeste 0 -- -- 100
2017-12-09 05:00:00 4.7 5 Oeste 13 Oeste 0 -- -- 100
2017-12-09 04:00:00 4.9 7 Oeste 17 Noroeste 0 -- -- 100
2017-12-09 03:00:00 5.2 6 Oeste 17 Oeste 0 -- -- 100
2017-12-09 02:00:00 5.3 4 Noroeste 14 Oeste 0 -- -- 100
2017-12-09 01:00:00 5.5 4 Noroeste 19 Noroeste 0 -- -- 100
2017-12-09 00:00:00 5.6 4 Oeste 15 Norte 0 -- -- 100
2017-12-08 23:00:00 5.8 7 Noroeste 17 Noroeste 0 -- -- 100
2017-12-08 22:00:00 5.8 6 Oeste 16 Noroeste 0 -- -- 100
2017-12-08 21:00:00 6 5 Noroeste 12 Oeste 0 -- -- 100
2017-12-08 20:00:00 6 4 Noroeste 10 Oeste 0 -- -- 100
2017-12-08 19:00:00 5.9 5 Oeste 13 Oeste 0 -- -- 100
2017-12-08 18:00:00 6 5 Oeste 13 Oeste 0 -- -- 100
2017-12-08 17:00:00 6.1 4 Noroeste 15 Norte 0 -- -- 100
2017-12-08 16:00:00 6.4 4 Noroeste 21 Norte 0 -- -- 100
2017-12-08 15:00:00 6.9 4 Noroeste 10 Oeste 0 -- -- 100
2017-12-08 14:00:00 7.1 4 Norte 19 Norte 0 -- -- 100
2017-12-08 13:00:00 7.7 3 Norte 14 Oeste 0 -- -- 100
2017-12-08 12:00:00 7.6 6 Noroeste 15 Oeste 0 -- -- 100
2017-12-08 11:00:00 7.4 5 Noroeste 12 Noroeste 0 -- -- 100
2017-12-08 10:00:00 6.4 3 Noroeste 8 Oeste 0 -- -- 100
2017-12-08 09:00:00 5.9 4 Sur 8 Sur 0 -- -- 100
2017-12-08 08:00:00 5.7 3 Sur 7 Sur 0 -- -- 100
2017-12-08 07:00:00 5.7 3 Sur 6 Sudeste 0 -- -- 100
2017-12-08 06:00:00 5.7 3 Sur 7 Sur 0 -- -- 100
2017-12-08 05:00:00 6 3 Sur 6 Sudeste 0 -- -- 100
2017-12-08 04:00:00 6.5 2 Sudoeste 8 Sur 0 -- -- 100
2017-12-08 03:00:00 6.5 3 Sur 8 Sur 0 -- -- 97
2017-12-08 02:00:00 6.7 3 Sur 8 Sur 0 -- -- 97
2017-12-08 01:00:00 7.4 4 Sudeste 17 Sudeste 0 -- -- 81
2017-12-08 00:00:00 6.8 3 Sudeste 8 Sur 0 -- -- 85
2017-12-07 23:00:00 7 4 Sur 14 Oeste 0 -- -- 81
2017-12-07 22:00:00 7.3 4 Oeste 15 Oeste 0 -- -- 79
2017-12-07 21:00:00 6.7 4 Sur 11 Sudeste 0 -- -- 76
2017-12-07 20:00:00 6.4 4 Sur 11 Sur 0 -- -- 75
2017-12-07 19:00:00 7.1 3 Sudeste 13 Sudoeste 0 -- -- 72
2017-12-07 18:00:00 6.1 2 Sur 9 Sur 0 -- -- 77
2017-12-07 17:00:00 6.7 4 Sur 10 Sudeste 0.2 -- -- 84
2017-12-07 16:00:00 8.1 3 Sudoeste 5 Sur 0 -- -- 80
2017-12-07 15:00:00 9.9 2 Oeste 6 Sudeste 0 -- -- 64
2017-12-07 14:00:00 9.8 4 Sur 10 Sudeste 0 -- -- 55
2017-12-07 13:00:00 9.8 2 Sudeste 13 Sudeste 0 -- -- 52
2017-12-07 12:00:00 8 9 Sudeste 17 Sudeste 0 -- -- 53
2017-12-07 11:00:00 6.2 5 Sudeste 15 Sudeste 0 -- -- 62
2017-12-07 10:00:00 4.8 7 Sur 14 Sudeste 0 -- -- 64
2017-12-07 09:00:00 3.9 4 Sudoeste 11 Sur 0 -- -- 72
2017-12-07 08:00:00 4.4 6 Sur 15 Sudeste 0 -- -- 65
2017-12-07 07:00:00 4.6 5 Sur 13 Sudeste 0 -- -- 64
2017-12-07 06:00:00 4.7 6 Sudeste 11 Sudeste 0 -- -- 62
2017-12-07 05:00:00 4.3 4 Sur 11 Sur 0 -- -- 71
2017-12-07 04:00:00 4 5 Sur 17 Este 0 -- -- 70
2017-12-07 03:00:00 3.5 10 Sudeste 17 Sudeste 0 -- -- 73
2017-12-07 02:00:00 3.3 8 Sur 14 Sudeste 0 -- -- 74
2017-12-07 01:00:00 2.5 8 Sur 14 Sur 0 -- -- 82
2017-12-07 00:00:00 2.4 7 Sur 13 Sur 0 -- -- 84
2017-12-06 23:00:00 2 5 Sur 14 Sudeste 0 -- -- 87
2017-12-06 22:00:00 2.2 5 Sur 11 Sudeste 0 -- -- 86
2017-12-06 21:00:00 2.3 5 Sur 9 Sur 0 -- -- 87
2017-12-06 20:00:00 2.6 5 Sur 8 Sur 0 -- -- 84
2017-12-06 19:00:00 3 4 Sur 8 Sudoeste 0 -- -- 82
2017-12-06 18:00:00 3.5 5 Sur 8 Sur 0 -- -- 83
2017-12-06 17:00:00 4.3 4 Sur 8 Sudoeste 0 -- -- 79
2017-12-06 16:00:00 4.7 4 Sudoeste 8 Sudoeste 0 -- -- 76
2017-12-06 15:00:00 6 4 Sur 8 Sudeste 0 -- -- 74
2017-12-06 14:00:00 6.9 6 Sur 10 Sur 0 -- -- 75
2017-12-06 13:00:00 5.4 5 Sur 11 Sur 0 -- -- 78
2017-12-06 12:00:00 3.2 5 Sur 13 Sudeste 0 -- -- 86
2017-12-06 11:00:00 1.8 5 Sur 13 Sur 0 -- -- 93
2017-12-06 10:00:00 1.2 6 Sur 13 Sur 0 -- -- 95
2017-12-06 09:00:00 0.6 5 Sur 12 Sur 0 -- -- 99
2017-12-06 08:00:00 0.6 7 Sur 13 Sur 0 -- -- 100
2017-12-06 07:00:00 0.1 5 Sur 12 Sur 0 -- -- 100
2017-12-06 06:00:00 0.5 6 Sur 10 Sudeste 0 -- -- 100
2017-12-06 05:00:00 0.5 5 Sur 12 Sur 0 -- -- 100
2017-12-06 04:00:00 0.7 6 Sur 11 Sudeste 0 -- -- 100
2017-12-06 03:00:00 1 5 Sur 10 Sudeste 0 -- -- 100
2017-12-06 02:00:00 1 5 Sur 11 Sur 0 -- -- 100
2017-12-06 01:00:00 1.1 5 Sur 10 Sudeste 0 -- -- 100
2017-12-06 00:00:00 1.1 6 Sur 10 Sudeste 0 -- -- 100
2017-12-05 23:00:00 1.2 8 Sur 12 Sudeste 0 -- -- 100
2017-12-05 22:00:00 2.1 4 Sur 7 Sur 0 -- -- 100
2017-12-05 21:00:00 2.1 5 Sur 7 Sur 0 -- -- 100
2017-12-05 20:00:00 1.7 3 Sur 4 Sur 0 -- -- 100
2017-12-05 19:00:00 2.1 3 Sur 5 Sudoeste 0 -- -- 100
2017-12-05 18:00:00 2.5 4 Sudoeste 6 Sudoeste 0 -- -- 97
2017-12-05 17:00:00 3.1 5 Sudoeste 6 Sudoeste 0 -- -- 92
2017-12-05 16:00:00 4 4 Sudoeste 7 Sudoeste 0 -- -- 89
2017-12-05 15:00:00 5.6 3 Sudoeste 6 Sudoeste 0 -- -- 82
2017-12-05 14:00:00 6.9 0 Calma 8 Nordeste 0 -- -- 80
2017-12-05 13:00:00 5.5 0 Calma 7 Sur 0 -- -- 85
2017-12-05 12:00:00 4 4 Sudeste 10 Sur 0 -- -- 92
2017-12-05 11:00:00 3.3 5 Sur 9 Sudeste 0 -- -- 99
2017-12-05 10:00:00 1.5 2 Sudoeste 4 Sudoeste 0 -- -- 100
2017-12-05 09:00:00 0.8 2 Sudoeste 4 Oeste 0 -- -- 100
2017-12-05 08:00:00 0.7 0 Calma 6 Sur 0 -- -- 100
2017-12-05 07:00:00 0.7 3 Sudoeste 5 Oeste 0 -- -- 100
2017-12-05 06:00:00 0.8 3 Sudoeste 7 Sudoeste 0 -- -- 100
2017-12-05 05:00:00 1 4 Sudoeste 6 Sudoeste 0 -- -- 100
2017-12-05 04:00:00 0.9 3 Sur 6 Sudoeste 0 -- -- 100
2017-12-05 03:00:00 1.1 4 Sur 10 Sudeste 0 -- -- 100
2017-12-05 02:00:00 1.4 3 Sudoeste 5 Sudoeste 0 -- -- 100
2017-12-05 01:00:00 1.8 3 Sudoeste 5 Sudoeste 0 -- -- 100
2017-12-05 00:00:00 2.1 3 Sudoeste 6 Sudoeste 0 -- -- 100
2017-12-04 23:00:00 3.2 4 Sur 10 Sudeste 0 -- -- 100
2017-12-04 22:00:00 3.6 3 Sudoeste 10 Sudeste 0 -- -- 100
2017-12-04 21:00:00 3 3 Sudoeste 6 Sudoeste 0 -- -- 100
2017-12-04 20:00:00 2.7 3 Oeste 6 Sudoeste 0 -- -- 100
2017-12-04 19:00:00 3.4 3 Oeste 6 Oeste 0 -- -- 100
2017-12-04 18:00:00 4.2 2 Sudoeste 12 Sudeste 0 -- -- 100
2017-12-04 17:00:00 4.6 2 Oeste 5 Oeste 0 -- -- 100
2017-12-04 16:00:00 5.7 0 Calma 6 Sudoeste 0 -- -- 100
2017-12-04 15:00:00 5.6 2 Oeste 6 Sudoeste 0 -- -- 100
2017-12-04 14:00:00 5 0 Calma 8 Noroeste 0.2 -- -- 100
2017-12-04 13:00:00 5.9 4 Noroeste 12 Oeste 0 -- -- 100
2017-12-04 12:00:00 5.8 4 Noroeste 10 Noroeste 0.8 -- -- 100
2017-12-04 11:00:00 4.8 0 Calma 8 Oeste 1 -- -- 100
2017-12-04 10:00:00 3.9 3 Oeste 9 Sur 1 -- -- 100
2017-12-04 09:00:00 3.2 2 Sudeste 9 Sudeste 1.2 -- -- 100
2017-12-04 08:00:00 3.5 2 Noroeste 9 Noroeste 1 -- -- 100
2017-12-04 07:00:00 3.8 4 Oeste 11 Noroeste 2 -- -- 100
2017-12-04 06:00:00 3.4 3 Oeste 13 Sudeste 1.4 -- -- 100
2017-12-04 05:00:00 3.6 3 Oeste 9 Oeste 1.2 -- -- 100
2017-12-04 04:00:00 4.1 4 Oeste 13 Noroeste 1.4 -- -- 100
2017-12-04 03:00:00 3.7 3 Noroeste 9 Noroeste 1.4 -- -- 100
2017-12-04 02:00:00 3.6 4 Oeste 9 Noroeste 1.6 -- -- 100
2017-12-04 01:00:00 3.9 3 Noroeste 15 Noroeste 1.8 -- -- 100
2017-12-04 00:00:00 3.8 3 Noroeste 16 Noroeste 1.8 -- -- 100
2017-12-03 23:00:00 2.6 5 Sur 15 Oeste 1.2 -- -- 100
2017-12-03 22:00:00 2.7 3 Noroeste 9 Sudeste 1.2 -- -- 100
2017-12-03 21:00:00 1.6 3 Sur 9 Sur 0.8 -- -- 100
2017-12-03 20:00:00 1.6 4 Sudeste 9 Sudeste 0.8 -- -- 100
2017-12-03 19:00:00 1.4 4 Sur 9 Sudeste 0.8 -- -- 100
2017-12-03 18:00:00 1.5 3 Sur 8 Sudeste 0.8 -- -- 99
2017-12-03 17:00:00 1.6 5 Sudeste 8 Sudeste 1 -- -- 98
2017-12-03 16:00:00 1.6 4 Sur 8 Sudeste 1.2 -- -- 96
2017-12-03 15:00:00 1.7 3 Sur 9 Sudeste 1.2 -- -- 96
2017-12-03 14:00:00 1.4 4 Sur 11 Sudeste 0.6 -- -- 96
2017-12-03 13:00:00 0.8 5 Sudeste 11 Sudeste 0 -- -- 100
2017-12-03 12:00:00 -0.4 9 Sudeste 13 Sudeste 0 -- -- 100
2017-12-03 11:00:00 -1 7 Sur 10 Sudeste 0 -- -- 100
2017-12-03 10:00:00 -1.2 5 Sudeste 9 Sudeste 0 -- -- 100
2017-12-03 09:00:00 -1.7 5 Sur 7 Sur 0 -- -- 100
2017-12-03 08:00:00 -1.6 3 Sur 6 Sudeste 0 -- -- 100
2017-12-03 07:00:00 -1.4 2 Sudoeste 4 Sudoeste 0 -- -- 100
2017-12-03 06:00:00 -1.5 2 Sudoeste 4 Sudoeste 0 -- -- 100
2017-12-03 05:00:00 -1.3 3 Oeste 6 Sudoeste 0 -- -- 100
2017-12-03 04:00:00 -0.8 2 Sur 8 Sur 0.2 -- -- 100
2017-12-03 03:00:00 -0.6 3 Sudoeste 8 Sudoeste 0.2 -- -- 100
2017-12-03 02:00:00 -0.2 4 Sudoeste 8 Sudoeste 0.2 -- -- 100
2017-12-03 01:00:00 0.7 4 Sur 11 Sudeste 0.6 -- -- 100
2017-12-03 00:00:00 1.3 0 Calma 11 Este 1 -- -- 100
2017-12-02 23:00:00 1.9 7 Sudeste 18 Este 1.2 -- -- 100
2017-12-02 22:00:00 1.5 3 Sudoeste 12 Norte 0.6 -- -- 100
2017-12-02 21:00:00 1.5 5 Noroeste 22 Norte 1.2 -- -- 100
2017-12-02 20:00:00 1.6 4 Oeste 27 Noroeste 1.2 -- -- 100
2017-12-02 19:00:00 1 5 Oeste 14 Sudoeste 0.8 -- -- 100
2017-12-02 18:00:00 1.1 4 Sudoeste 11 Sudoeste 1.2 -- -- 100
2017-12-02 17:00:00 1.4 5 Oeste 16 Oeste 2.2 -- -- 100
2017-12-02 16:00:00 1.8 0 Calma 7 Oeste 2.2 -- -- 100
2017-12-02 15:00:00 1.4 5 Sur 11 Sudeste 1.6 -- -- 100
2017-12-02 14:00:00 1.5 3 Oeste 20 Sudeste 0.8 -- -- 100
2017-12-02 13:00:00 0.7 3 Este 11 Sudeste 0.6 -- -- 100
2017-12-02 12:00:00 0.5 4 Noroeste 7 Noroeste 0.6 -- -- 100
2017-12-02 11:00:00 0.4 4 Oeste 9 Sudeste 0.4 -- -- 100
2017-12-02 10:00:00 0.8 5 Sudeste 11 Sudeste 0.2 -- -- 100
2017-12-02 09:00:00 0.1 4 Oeste 8 Oeste 0.2 -- -- 100
2017-12-02 08:00:00 0 2 Oeste 10 Noroeste 0.4 -- -- 100
2017-12-02 07:00:00 0.1 2 Noroeste 10 Oeste 0.4 -- -- 100
2017-12-02 06:00:00 0.9 5 Sur 19 Este 0.4 -- -- 100
2017-12-02 05:00:00 0.2 4 Sudoeste 12 Noroeste 0.4 -- -- 100
2017-12-02 04:00:00 0.2 3 Oeste 8 Oeste 0.6 -- -- 100
2017-12-02 03:00:00 0.4 5 Oeste 14 Oeste 0.2 -- -- 100
2017-12-02 02:00:00 0.5 9 Noroeste 30 Noroeste 0.4 -- -- 100
2017-12-02 01:00:00 0.4 11 Oeste 25 Oeste 0.4 -- -- 100
2017-12-02 00:00:00 0.4 7 Oeste 17 Oeste 0.2 -- -- 100
2017-12-01 23:00:00 0.4 5 Noroeste 16 Nordeste 0.2 -- -- 100
2017-12-01 22:00:00 0.2 6 Nordeste 20 Oeste 0.4 -- -- 100
2017-12-01 21:00:00 0.2 7 Norte 13 Norte 0.2 -- -- 100
2017-12-01 20:00:00 -0.1 3 Norte 8 Norte 0.2 -- -- 100
2017-12-01 19:00:00 -0.6 0 Calma 7 Norte 0.4 -- -- 100
2017-12-01 18:00:00 -0.3 4 Norte 8 Norte 0.2 -- -- 100
2017-12-01 17:00:00 -0.1 0 Calma 9 Norte 0.4 -- -- 100
2017-12-01 16:00:00 -0.2 2 Norte 5 Norte 0.4 -- -- 100
2017-12-01 15:00:00 -0.1 2 Norte 6 Norte 0.6 -- -- 100
2017-12-01 14:00:00 -0.1 0 Calma 13 Este 0.8 -- -- 100
2017-12-01 13:00:00 0.2 5 Sudeste 12 Este 0.8 -- -- 100
2017-12-01 12:00:00 -0.1 3 Sudeste 13 Oeste 0.6 -- -- 100
2017-12-01 11:00:00 -0.1 5 Sudeste 11 Sudeste 0.4 -- -- 100
2017-12-01 10:00:00 0.1 5 Sudeste 9 Sudeste 0.2 -- -- 100
2017-12-01 09:00:00 0.5 2 Sur 31 Sudeste 1.6 -- -- 100
2017-12-01 08:00:00 3.1 11 Norte 35 Oeste 6 -- -- 100
2017-12-01 07:00:00 3.4 6 Noroeste 25 Noroeste 3.8 -- -- 100
2017-12-01 06:00:00 3.6 11 Noroeste 35 Noroeste 1.8 -- -- 100
2017-12-01 05:00:00 3.7 10 Noroeste 36 Noroeste 4.4 -- -- 100
2017-12-01 04:00:00 3.5 8 Noroeste 25 Noroeste 2.4 -- -- 100
2017-12-01 03:00:00 3.3 9 Noroeste 24 Noroeste 4 -- -- 100
2017-12-01 02:00:00 3.3 9 Noroeste 29 Oeste 2.8 -- -- 100
2017-12-01 01:00:00 3.5 10 Noroeste 27 Noroeste 3.4 -- -- 100
2017-12-01 00:00:00 3.4 6 Noroeste 26 Oeste 1.8 -- -- 100
2017-11-30 23:00:00 3.4 10 Noroeste 28 Noroeste 2 -- -- 100
2017-11-30 22:00:00 3.4 8 Noroeste 22 Noroeste 2 -- -- 100
2017-11-30 21:00:00 3.3 7 Noroeste 19 Noroeste 1.2 -- -- 100
2017-11-30 20:00:00 3 5 Noroeste 19 Noroeste 1.6 -- -- 100
2017-11-30 19:00:00 2.8 6 Noroeste 19 Noroeste 0.8 -- -- 100
2017-11-30 18:00:00 3 9 Noroeste 22 Oeste 0.2 -- -- 100
2017-11-30 17:00:00 3.3 14 Noroeste 31 Oeste 0.2 -- -- 100
2017-11-30 16:00:00 4.5 8 Noroeste 23 Noroeste 1 -- -- 100
2017-11-30 15:00:00 4.4 3 Norte 9 Oeste 0.2 -- -- 100
2017-11-30 14:00:00 3.4 4 Noroeste 19 Noroeste 1.6 -- -- 100
2017-11-30 13:00:00 3.7 9 Noroeste 22 Noroeste 0 -- -- 100
2017-11-30 12:00:00 3.4 4 Norte 11 Oeste 0 -- -- 100
2017-11-30 11:00:00 2 4 Sudeste 9 Sudeste 0.2 -- -- 100
2017-11-30 10:00:00 1.4 2 Este 9 Sudeste 0.6 -- -- 100
2017-11-30 09:00:00 0.5 3 Este 10 Sudeste 0.4 -- -- 100
2017-11-30 08:00:00 0.5 0 Calma 13 Oeste 0.8 -- -- 100
2017-11-30 07:00:00 0.5 5 Oeste 13 Noroeste 1.2 -- -- 100
2017-11-30 06:00:00 0.8 7 Noroeste 17 Sudoeste 2.4 -- -- 100
2017-11-30 05:00:00 1 3 Sur 19 Oeste 0 -- -- 100
2017-11-30 04:00:00 1.6 7 Noroeste 14 Oeste 0.2 -- -- 100
2017-11-30 03:00:00 1.4 0 Calma 10 Sudeste 0 -- -- 100
2017-11-30 02:00:00 1 3 Sudeste 9 Sudoeste 0.8 -- -- 100
2017-11-30 01:00:00 1.5 5 Oeste 15 Oeste 2.8 -- -- 100
2017-11-30 00:00:00 1.5 6 Noroeste 16 Noroeste 1.6 -- -- 100
2017-11-29 23:00:00 2.3 4 Norte 15 Oeste 0 -- -- 100
2017-11-29 22:00:00 2.1 4 Sur 13 Sudeste 0.4 -- -- 100
2017-11-29 21:00:00 2.4 2 Sudoeste 16 Oeste 1 -- -- 100
2017-11-29 20:00:00 2.4 3 Norte 12 Noroeste 1.6 -- -- 100
2017-11-29 19:00:00 2.2 8 Oeste 14 Noroeste 0 -- -- 100
2017-11-29 18:00:00 2.1 7 Noroeste 19 Noroeste 2 -- -- 100
2017-11-29 17:00:00 3.3 5 Noroeste 16 Noroeste 3 -- -- 100
2017-11-29 16:00:00 3.8 5 Noroeste 23 Noroeste 2.2 -- -- 100
2017-11-29 15:00:00 4.3 8 Noroeste 18 Oeste 0 -- -- 99
2017-11-29 14:00:00 4.2 7 Noroeste 22 Noroeste 0 -- -- 99
2017-11-29 13:00:00 4.5 6 Noroeste 14 Oeste 0 -- -- 100
2017-11-29 12:00:00 3.5 7 Oeste 18 Noroeste 3.4 -- -- 100
2017-11-29 11:00:00 4.5 6 Noroeste 18 Noroeste 1.2 -- -- 100
2017-11-29 10:00:00 4.6 2 Noroeste 18 Noroeste 0.8 -- -- 100
2017-11-29 09:00:00 4.3 4 Noroeste 15 Oeste 0.2 -- -- 100
2017-11-29 08:00:00 4.4 4 Norte 19 Oeste 0.8 -- -- 100
2017-11-29 07:00:00 4.6 5 Noroeste 17 Noroeste 0.2 -- -- 100
2017-11-29 06:00:00 5.2 4 Norte 13 Noroeste 0 -- -- 100
2017-11-29 05:00:00 5.2 5 Noroeste 15 Noroeste 0.2 -- -- 100
2017-11-29 04:00:00 5.5 6 Noroeste 18 Noroeste 0 -- -- 100
2017-11-29 03:00:00 5.4 6 Noroeste 16 Oeste 0.4 -- -- 100
2017-11-29 02:00:00 5.4 5 Noroeste 19 Oeste 0.8 -- -- 100
2017-11-29 01:00:00 5.6 8 Noroeste 16 Noroeste 0.6 -- -- 100
2017-11-29 00:00:00 5.8 9 Noroeste 18 Oeste 1 -- -- 100
2017-11-28 23:00:00 6.3 6 Noroeste 20 Noroeste 1.6 -- -- 100
2017-11-28 22:00:00 6.6 5 Noroeste 16 Oeste 1.4 -- -- 100
2017-11-28 21:00:00 6.8 4 Norte 22 Noroeste 0.8 -- -- 100
2017-11-28 20:00:00 7.2 6 Noroeste 25 Oeste 0 -- -- 99
2017-11-28 19:00:00 7.5 5 Noroeste 14 Oeste 0 -- -- 86
2017-11-28 18:00:00 7.6 3 Oeste 7 Oeste 0 -- -- 86
2017-11-28 17:00:00 8.4 3 Oeste 13 Oeste 0 -- -- 82
2017-11-28 16:00:00 9.5 5 Noroeste 21 Oeste 0 -- -- 71
2017-11-28 15:00:00 9.9 8 Noroeste 21 Sudoeste 0 -- -- 67
2017-11-28 14:00:00 10.8 6 Norte 15 Nordeste 0 -- -- 66
2017-11-28 13:00:00 9.4 3 Oeste 9 Sudoeste 0 -- -- 75
2017-11-28 12:00:00 6.8 4 Sudeste 11 Sudeste 0 -- -- 81
2017-11-28 11:00:00 4.8 5 Sudeste 11 Sudeste 0 -- -- 88
2017-11-28 10:00:00 2.5 5 Sur 12 Sudeste 0 -- -- 98
2017-11-28 09:00:00 1.7 5 Sur 10 Sur 0 -- -- 100
2017-11-28 08:00:00 1.6 6 Sur 10 Sur 0 -- -- 100
2017-11-28 07:00:00 1.7 4 Sur 7 Sudeste 0 -- -- 100
2017-11-28 06:00:00 1.8 3 Sur 6 Sur 0 -- -- 100
2017-11-28 05:00:00 2.1 5 Sur 9 Sudeste 0 -- -- 100
2017-11-28 04:00:00 2.4 6 Sur 9 Sur 0 -- -- 100
2017-11-28 03:00:00 2.2 2 Sudoeste 5 Sudoeste 0 -- -- 100
2017-11-28 02:00:00 2.2 4 Sudoeste 6 Sudoeste 0 -- -- 100
2017-11-28 01:00:00 2.8 4 Sudoeste 9 Oeste 0 -- -- 100
2017-11-28 00:00:00 3.4 5 Oeste 9 Oeste 0 -- -- 100
2017-11-27 23:00:00 2.9 4 Oeste 8 Sudoeste 0 -- -- 100
2017-11-27 22:00:00 3.3 4 Oeste 10 Oeste 0 -- -- 100
2017-11-27 21:00:00 3.6 2 Oeste 6 Oeste 0 -- -- 100
2017-11-27 20:00:00 3.7 3 Oeste 6 Oeste 0 -- -- 100
2017-11-27 19:00:00 4.2 4 Oeste 8 Oeste 0 -- -- 98
2017-11-27 18:00:00 5.1 4 Sudoeste 6 Sudoeste 0 -- -- 94
2017-11-27 17:00:00 6.3 4 Sudoeste 7 Sur 0 -- -- 92
2017-11-27 16:00:00 7.6 3 Sudoeste 10 Sur 0 -- -- 88
2017-11-27 15:00:00 7.4 4 Sudeste 9 Sudeste 0 -- -- 88
2017-11-27 14:00:00 6.7 5 Sudeste 9 Sudeste 0 -- -- 94
2017-11-27 13:00:00 6 6 Sudeste 10 Sudeste 0.2 -- -- 100
2017-11-27 12:00:00 3.5 6 Sudeste 12 Sudeste 0 -- -- 100
2017-11-27 11:00:00 2.5 9 Sudeste 14 Sudeste 0 -- -- 100
2017-11-27 10:00:00 2.4 5 Sudeste 11 Sudeste 0 -- -- 100
2017-11-27 09:00:00 2.4 4 Sudeste 10 Sudeste 0 -- -- 100
2017-11-27 08:00:00 2.6 6 Sudeste 9 Sudeste 0 -- -- 100
2017-11-27 07:00:00 2.6 2 Sur 8 Sudeste 0 -- -- 100
2017-11-27 06:00:00 2.5 3 Sur 6 Sur 0 -- -- 100
2017-11-27 05:00:00 3.5 4 Sudeste 8 Sudeste 0 -- -- 100
2017-11-27 04:00:00 3.7 2 Sur 6 Sur 0 -- -- 100
2017-11-27 03:00:00 4.4 4 Sudeste 8 Sudeste 0 -- -- 100
2017-11-27 02:00:00 4.8 4 Sudeste 8 Sudeste 0 -- -- 100
2017-11-27 01:00:00 4.6 4 Sur 6 Sudeste 0 -- -- 100
2017-11-27 00:00:00 4.6 2 Sur 8 Sudeste 0 -- -- 100
2017-11-26 23:00:00 4.9 3 Sudeste 9 Sur 0 -- -- 100
2017-11-26 22:00:00 5 2 Sudoeste 5 Oeste 0 -- -- 100
2017-11-26 21:00:00 4.9 3 Sudoeste 4 Sudoeste 0 -- -- 100
2017-11-26 20:00:00 5.4 0 Calma 5 Sur 0 -- -- 100
2017-11-26 19:00:00 5.6 0 Calma 4 Sur 0 -- -- 99
2017-11-26 18:00:00 6 2 Sudoeste 6 Sudeste 0 -- -- 98
2017-11-26 17:00:00 7 3 Sudeste 5 Sudeste 0 -- -- 93
2017-11-26 16:00:00 6.7 4 Oeste 8 Oeste 0 -- -- 95
2017-11-26 15:00:00 6.8 2 Noroeste 18 Sudoeste 0 -- -- 94
2017-11-26 14:00:00 7.5 3 Oeste 11 Nordeste 0 -- -- 95
2017-11-26 13:00:00 7.1 3 Norte 12 Noroeste 0 -- -- 95
2017-11-26 12:00:00 6.5 6 Oeste 14 Oeste 0 -- -- 99
2017-11-26 11:00:00 5.4 6 Oeste 15 Oeste 0 -- -- 100
2017-11-26 10:00:00 5 9 Oeste 21 Oeste 0 -- -- 100
2017-11-26 09:00:00 3 2 Oeste 10 Sudoeste 0 -- -- 100
2017-11-26 08:00:00 4.1 4 Oeste 13 Noroeste 0 -- -- 100
2017-11-26 07:00:00 4.5 6 Oeste 13 Oeste 0 -- -- 100
2017-11-26 06:00:00 4.2 6 Oeste 16 Noroeste 0 -- -- 100
2017-11-26 05:00:00 4.4 6 Noroeste 16 Oeste 0 -- -- 100
2017-11-26 04:00:00 4.1 6 Noroeste 18 Noroeste 0 -- -- 100
2017-11-26 03:00:00 3.7 3 Noroeste 14 Noroeste 0 -- -- 100
2017-11-26 02:00:00 4.4 5 Noroeste 20 Oeste 0 -- -- 100
2017-11-26 01:00:00 3.9 5 Noroeste 28 Noroeste 0 -- -- 100
2017-11-26 00:00:00 4.1 12 Oeste 26 Oeste 0 -- -- 100
2017-11-25 23:00:00 3.7 5 Oeste 17 Oeste 0 -- -- 100
2017-11-25 22:00:00 4.7 5 Oeste 16 Oeste 0 -- -- 100
2017-11-25 21:00:00 4.9 6 Oeste 14 Sudoeste 0 -- -- 99
2017-11-25 20:00:00 4.9 3 Oeste 9 Oeste 0 -- -- 100
2017-11-25 19:00:00 5.4 4 Sudoeste 15 Norte 0 -- -- 94
2017-11-25 18:00:00 6 5 Oeste 9 Oeste 0 -- -- 97
2017-11-25 17:00:00 7 4 Oeste 12 Oeste 0 -- -- 95
2017-11-25 16:00:00 7.3 4 Noroeste 21 Noroeste 0 -- -- 96
2017-11-25 15:00:00 7.9 3 Noroeste 14 Norte 0 -- -- 93
2017-11-25 14:00:00 8.1 6 Noroeste 24 Oeste 0 -- -- 94
2017-11-25 13:00:00 8.5 4 Noroeste 17 Nordeste 0 -- -- 89
2017-11-25 12:00:00 8.8 8 Norte 21 Norte 0 -- -- 94
2017-11-25 11:00:00 7.8 8 Norte 22 Oeste 0 -- -- 100
2017-11-25 10:00:00 7.7 8 Noroeste 23 Oeste 0 -- -- 100
2017-11-25 09:00:00 7.8 2 Norte 20 Norte 0 -- -- 100
2017-11-25 08:00:00 8 9 Noroeste 21 Noroeste 0 -- -- 100
2017-11-25 07:00:00 8.4 5 Noroeste 23 Oeste 0 -- -- 100
2017-11-25 06:00:00 8.4 9 Noroeste 27 Oeste 0 -- -- 100
2017-11-25 05:00:00 9.4 5 Noroeste 18 Nordeste 0 -- -- 100
2017-11-25 04:00:00 9.6 9 Noroeste 23 Noroeste 0 -- -- 100
2017-11-25 03:00:00 9.6 9 Noroeste 38 Oeste 0 -- -- 100
2017-11-25 02:00:00 9.7 10 Noroeste 26 Oeste 0 -- -- 100
2017-11-25 01:00:00 9.9 8 Noroeste 19 Noroeste 0 -- -- 100
2017-11-25 00:00:00 10.3 5 Noroeste 15 Oeste 0 -- -- 100
2017-11-24 23:00:00 11 5 Noroeste 13 Noroeste 0 -- -- 100
2017-11-24 22:00:00 11.9 6 Noroeste 14 Oeste 0 -- -- 100
2017-11-24 21:00:00 12.5 6 Noroeste 13 Noroeste 0 -- -- 94
2017-11-24 20:00:00 14.3 6 Norte 16 Nordeste 0 -- -- 71
2017-11-24 19:00:00 14.2 4 Nordeste 15 Este 0 -- -- 77
2017-11-24 18:00:00 13.9 3 Oeste 11 Nordeste 0 -- -- 80
2017-11-24 17:00:00 14.5 3 Norte 13 Sudeste 0 -- -- 77
2017-11-24 16:00:00 15.1 5 Nordeste 12 Norte 0 -- -- 73
2017-11-24 15:00:00 15.1 4 Norte 21 Noroeste 0 -- -- 73
2017-11-24 14:00:00 15 6 Noroeste 18 Oeste 0 -- -- 73
2017-11-24 13:00:00 14.7 5 Sur 14 Nordeste 0 -- -- 72
2017-11-24 12:00:00 14.1 6 Sur 21 Sudoeste 0 -- -- 76
2017-11-24 11:00:00 13.4 8 Noroeste 21 Noroeste 0 -- -- 79
2017-11-24 10:00:00 12.6 4 Sudoeste 20 Sur 0 -- -- 82
2017-11-24 09:00:00 13.1 7 Sudoeste 31 Oeste 0 -- -- 73
2017-11-24 08:00:00 13.6 5 Este 39 Oeste 0 -- -- 69
2017-11-24 07:00:00 13.8 6 Sudeste 22 Este 0 -- -- 64
2017-11-24 06:00:00 13.5 4 Norte 17 Sudoeste 0 -- -- 66
2017-11-24 05:00:00 14.8 9 Este 37 Noroeste 0 -- -- 55
2017-11-24 04:00:00 15.7 7 Oeste 38 Sudoeste 0 -- -- 44
2017-11-24 03:00:00 16.4 9 Noroeste 32 Norte 0 -- -- 40
2017-11-24 02:00:00 15.5 9 Oeste 23 Noroeste 0 -- -- 42
2017-11-24 01:00:00 14.9 5 Noroeste 28 Norte 0 -- -- 47
2017-11-24 00:00:00 15.4 6 Este 22 Este 0 -- -- 47
2017-11-23 23:00:00 14.7 5 Sudeste 27 Este 0 -- -- 56
2017-11-23 22:00:00 14.2 4 Sudoeste 21 Sudeste 0 -- -- 66
2017-11-23 21:00:00 15.7 6 Este 26 Noroeste 0 -- -- 60
2017-11-23 20:00:00 15.4 7 Este 23 Este 0 -- -- 64
2017-11-23 19:00:00 16.2 7 Nordeste 21 Noroeste 0 -- -- 62
2017-11-23 18:00:00 16.4 4 Oeste 24 Oeste 0 -- -- 63
2017-11-23 17:00:00 16.7 5 Este 17 Este 0 -- -- 60
2017-11-23 16:00:00 17.9 7 Norte 25 Este 0 -- -- 55
2017-11-23 15:00:00 17.4 8 Este 28 Nordeste 0 -- -- 57
2017-11-23 14:00:00 17.6 6 Noroeste 29 Sudeste 0 -- -- 55
2017-11-23 13:00:00 17.9 9 Norte 25 Noroeste 0 -- -- 53
2017-11-23 12:00:00 16.9 5 Nordeste 28 Nordeste 0 -- -- 53
2017-11-23 11:00:00 15.9 7 Noroeste 26 Noroeste 0 -- -- 53
2017-11-23 10:00:00 14.9 8 Este 21 Nordeste 0 -- -- 53
2017-11-23 09:00:00 14.4 6 Nordeste 25 Este 0 -- -- 54
2017-11-23 08:00:00 14.2 8 Sudeste 25 Este 0 -- -- 52
2017-11-23 07:00:00 14.8 5 Este 23 Noroeste 0 -- -- 57
2017-11-23 06:00:00 15.3 7 Noroeste 31 Nordeste 0 -- -- 42
2017-11-23 05:00:00 15.8 9 Este 24 Este 0 -- -- 40
2017-11-23 04:00:00 15.6 11 Nordeste 29 Nordeste 0 -- -- 40
2017-11-23 03:00:00 15.1 6 Este 29 Sur 0 -- -- 42
2017-11-23 02:00:00 15.4 8 Este 36 Sudeste 0 -- -- 39
2017-11-23 01:00:00 14.9 9 Sudeste 24 Sudeste 0 -- -- 39
2017-11-23 00:00:00 14.8 6 Sudeste 27 Sudeste 0 -- -- 40
2017-11-22 23:00:00 14.7 14 Sudeste 28 Sudeste 0 -- -- 39
2017-11-22 22:00:00 14.1 5 Sur 33 Este 0 -- -- 42
2017-11-22 21:00:00 14.5 15 Sudeste 33 Sudeste 0 -- -- 40
2017-11-22 20:00:00 14 10 Sudeste 24 Este 0 -- -- 40
2017-11-22 19:00:00 14 12 Sudeste 25 Este 0 -- -- 41
2017-11-22 18:00:00 15 10 Sudeste 26 Sudeste 0 -- -- 38
2017-11-22 17:00:00 14.6 6 Sudeste 16 Sudeste 0 -- -- 44
2017-11-22 16:00:00 16.6 8 Nordeste 19 Nordeste 0 -- -- 40
2017-11-22 15:00:00 17.4 7 Este 22 Nordeste 0 -- -- 39
2017-11-22 14:00:00 17.6 7 Nordeste 20 Noroeste 0 -- -- 39
2017-11-22 13:00:00 16.7 6 Nordeste 18 Sudeste 0 -- -- 41
2017-11-22 12:00:00 14.5 4 Sudeste 18 Sudeste 0 -- -- 43
2017-11-22 11:00:00 11.1 5 Sur 14 Sudeste 0 -- -- 54
2017-11-22 10:00:00 9.7 5 Sur 13 Sudeste 0 -- -- 59
2017-11-22 09:00:00 9.4 6 Sur 14 Sur 0 -- -- 55
2017-11-22 08:00:00 8.7 5 Sur 21 Sudeste 0 -- -- 55
2017-11-22 07:00:00 9 6 Sudoeste 13 Sudeste 0 -- -- 55
2017-11-22 06:00:00 9.7 5 Sur 11 Sudoeste 0 -- -- 52
2017-11-22 05:00:00 10.4 4 Sur 19 Sudoeste 0 -- -- 49
2017-11-22 04:00:00 12 5 Sur 18 Sur 0 -- -- 43
2017-11-22 03:00:00 12.7 7 Sudoeste 20 Sur 0 -- -- 37
2017-11-22 02:00:00 12.1 3 Sudoeste 26 Sudeste 0 -- -- 41
2017-11-22 01:00:00 11 5 Sur 22 Este 0 -- -- 49
2017-11-22 00:00:00 9.7 5 Sur 18 Sudeste 0 -- -- 54
2017-11-21 23:00:00 9.6 3 Oeste 12 Nordeste 0 -- -- 56
2017-11-21 22:00:00 11 5 Sudeste 12 Sur 0 -- -- 54
2017-11-21 21:00:00 11.3 5 Sur 15 Sudeste 0 -- -- 49
2017-11-21 20:00:00 12.1 6 Sur 17 Sudeste 0 -- -- 49
2017-11-21 19:00:00 11.8 5 Sur 13 Sur 0 -- -- 50
2017-11-21 18:00:00 10.6 4 Sudoeste 10 Sudoeste 0 -- -- 57
2017-11-21 17:00:00 11.2 4 Sudoeste 8 Sudoeste 0 -- -- 59
2017-11-21 16:00:00 12.8 4 Sudoeste 8 Sudoeste 0 -- -- 57
2017-11-21 15:00:00 13.9 3 Sudoeste 8 Sudoeste 0 -- -- 55
2017-11-21 14:00:00 15 3 Sur 7 Sudeste 0 -- -- 59
2017-11-21 13:00:00 13.9 3 Sur 10 Sur 0 -- -- 60
2017-11-21 12:00:00 12.5 5 Sudeste 10 Sudeste 0 -- -- 57
2017-11-21 11:00:00 9.7 5 Sur 12 Sudeste 0 -- -- 65
2017-11-21 10:00:00 7.8 4 Sur 12 Sudoeste 0 -- -- 69
2017-11-21 09:00:00 7.1 7 Sur 12 Sur 0 -- -- 71
2017-11-21 08:00:00 6.7 6 Sur 13 Sudeste 0 -- -- 74
2017-11-21 07:00:00 6.6 4 Sur 11 Sur 0 -- -- 76
2017-11-21 06:00:00 7.7 7 Sur 12 Sudeste 0 -- -- 71
2017-11-21 05:00:00 7.6 6 Sur 12 Sudeste 0 -- -- 72
2017-11-21 04:00:00 7.5 5 Sur 11 Sur 0 -- -- 74
2017-11-21 03:00:00 8.5 6 Sur 12 Sudeste 0 -- -- 74
2017-11-21 02:00:00 8.6 6 Sur 10 Sur 0 -- -- 70
2017-11-21 01:00:00 8.8 5 Sur 10 Sur 0 -- -- 74
2017-11-21 00:00:00 9 5 Sur 9 Sur 0 -- -- 75
2017-11-20 23:00:00 9.5 6 Sur 11 Sur 0 -- -- 78
2017-11-20 22:00:00 9.8 5 Sur 9 Sur 0 -- -- 75
2017-11-20 21:00:00 9.9 5 Sur 7 Sur 0 -- -- 72
2017-11-20 20:00:00 9.5 4 Sur 6 Sur 0 -- -- 68
2017-11-20 19:00:00 9.9 0 Calma 5 Oeste 0 -- -- 73
2017-11-20 18:00:00 10.2 4 Sudoeste 7 Sudoeste 0 -- -- 73
2017-11-20 17:00:00 11.7 5 Sudoeste 7 Sudoeste 0 -- -- 68
2017-11-20 16:00:00 13.6 5 Sudoeste 6 Sudoeste 0 -- -- 59
2017-11-20 15:00:00 13.9 4 Sur 9 Sudeste 0 -- -- 63
2017-11-20 14:00:00 14.5 5 Sur 10 Sur 0 -- -- 58
2017-11-20 13:00:00 13.1 4 Sur 11 Sudeste 0 -- -- 59
2017-11-20 12:00:00 10.9 7 Sudeste 14 Sudeste 0 -- -- 57
2017-11-20 11:00:00 8.4 7 Sur 13 Sur 0 -- -- 66
2017-11-20 10:00:00 5.7 6 Sur 12 Sur 0 -- -- 76
2017-11-20 09:00:00 4.3 7 Sur 13 Sudeste 0 -- -- 83
2017-11-20 08:00:00 3.4 8 Sur 14 Sudeste 0 -- -- 90
2017-11-20 07:00:00 3.7 8 Sur 12 Sudeste 0 -- -- 91
2017-11-20 06:00:00 4.1 6 Sur 12 Sudeste 0 -- -- 92
2017-11-20 05:00:00 3.5 6 Sur 12 Sudeste 0 -- -- 100
2017-11-20 04:00:00 4 6 Sur 11 Sur 0 -- -- 97
2017-11-20 03:00:00 3.9 5 Sur 9 Sur 0 -- -- 100
2017-11-20 02:00:00 4 5 Sur 11 Sudeste 0 -- -- 100
2017-11-20 01:00:00 3.7 4 Sudeste 8 Sur 0 -- -- 98
2017-11-20 00:00:00 4.3 5 Sur 8 Sur 0 -- -- 100
2017-11-19 23:00:00 4.4 4 Sur 8 Sur 0 -- -- 100
2017-11-19 22:00:00 4 3 Sudoeste 5 Sudoeste 0 -- -- 98
2017-11-19 21:00:00 4.3 0 Calma 4 Sudoeste 0 -- -- 94
2017-11-19 20:00:00 4.8 2 Sudoeste 5 Sudoeste 0 -- -- 92
2017-11-19 19:00:00 5.2 2 Sudoeste 6 Oeste 0 -- -- 92
2017-11-19 18:00:00 6.1 4 Oeste 9 Oeste 0 -- -- 93
2017-11-19 17:00:00 6.9 4 Oeste 8 Oeste 0 -- -- 88
2017-11-19 16:00:00 9.2 4 Sudoeste 6 Sudoeste 0 -- -- 76
2017-11-19 15:00:00 10.1 4 Oeste 8 Oeste 0 -- -- 76
2017-11-19 14:00:00 10.2 4 Oeste 8 Oeste 0 -- -- 80
2017-11-19 13:00:00 7.3 3 Noroeste 8 Oeste 0 -- -- 100
2017-11-19 12:00:00 4.7 6 Sudeste 14 Sudeste 0 -- -- 100
2017-11-19 11:00:00 3.6 6 Sudeste 14 Sudeste 0 -- -- 100
2017-11-19 10:00:00 2.4 8 Sudeste 12 Sudeste 0 -- -- 100
2017-11-19 09:00:00 2.2 6 Sudeste 12 Sudeste 0 -- -- 100
2017-11-19 08:00:00 1.9 5 Sur 9 Sudeste 0 -- -- 100
2017-11-19 07:00:00 2.8 4 Sudeste 10 Sudeste 0 -- -- 100
2017-11-19 06:00:00 2.9 4 Sur 8 Sur 0 -- -- 100
2017-11-19 05:00:00 3.5 4 Sur 10 Sudeste 0 -- -- 100
2017-11-19 04:00:00 2.7 7 Sur 10 Sur 0 -- -- 100
2017-11-19 03:00:00 3.3 4 Sudoeste 7 Sur 0 -- -- 100
2017-11-19 02:00:00 3.7 2 Sudoeste 5 Sudoeste 0 -- -- 100
2017-11-19 01:00:00 3.9 2 Sur 6 Sur 0 -- -- 100
2017-11-19 00:00:00 4.3 4 Sudoeste 6 Sudoeste 0 -- -- 100
2017-11-18 23:00:00 4.5 4 Sudoeste 5 Oeste 0 -- -- 100
2017-11-18 22:00:00 4.8 3 Sudoeste 6 Sudoeste 0 -- -- 100
2017-11-18 21:00:00 5.6 4 Sudoeste 9 Nordeste 0 -- -- 100
2017-11-18 20:00:00 6.2 0 Calma 6 Sudoeste 0 -- -- 100
2017-11-18 19:00:00 6.2 4 Sudoeste 7 Sudoeste 0 -- -- 99
2017-11-18 18:00:00 7.9 2 Sur 11 Noroeste 0 -- -- 95
2017-11-18 17:00:00 9.8 3 Nordeste 10 Nordeste 0 -- -- 89
2017-11-18 16:00:00 11.4 4 Noroeste 14 Nordeste 0 -- -- 79
2017-11-18 15:00:00 10.8 4 Norte 18 Nordeste 0 -- -- 88
2017-11-18 14:00:00 10.9 3 Norte 12 Nordeste 0 -- -- 91
2017-11-18 13:00:00 10.5 4 Noroeste 9 Noroeste 0 -- -- 95
2017-11-18 12:00:00 10.2 5 Norte 10 Nordeste 0 -- -- 99
2017-11-18 11:00:00 9.6 4 Noroeste 9 Noroeste 0 -- -- 100
2017-11-18 10:00:00 8.1 0 Calma 6 Oeste 0 -- -- 100
2017-11-18 09:00:00 6.9 0 Calma 5 Sudeste 0 -- -- 100
2017-11-18 08:00:00 6.4 5 Sur 10 Sudeste 0 -- -- 100
2017-11-18 07:00:00 6.2 3 Sudeste 8 Sur 0 -- -- 100
2017-11-18 06:00:00 6.3 0 Calma 5 Sur 0 -- -- 100
2017-11-18 05:00:00 6.5 0 Calma 8 Oeste 0 -- -- 100
2017-11-18 04:00:00 5.5 0 Calma 5 Oeste 0 -- -- 100
2017-11-18 03:00:00 6.7 3 Sudoeste 8 Noroeste 0 -- -- 100
2017-11-18 02:00:00 7.2 3 Noroeste 11 Oeste 0 -- -- 100
2017-11-18 01:00:00 7.6 3 Oeste 11 Oeste 0 -- -- 100
2017-11-18 00:00:00 7.1 0 Calma 9 Oeste 0 -- -- 100
2017-11-17 23:00:00 6.4 0 Calma 4 Sudoeste 0 -- -- 100
2017-11-17 22:00:00 7.1 3 Oeste 8 Oeste 0 -- -- 100
2017-11-17 21:00:00 7.8 3 Oeste 8 Oeste 0 -- -- 100
2017-11-17 20:00:00 7.2 3 Oeste 6 Oeste 0 -- -- 100
2017-11-17 19:00:00 7.6 3 Oeste 8 Este 0 -- -- 98
2017-11-17 18:00:00 8.5 3 Oeste 9 Noroeste 0 -- -- 96
2017-11-17 17:00:00 10 4 Noroeste 10 Noroeste 0 -- -- 93
2017-11-17 16:00:00 11.6 4 Noroeste 9 Noroeste 0 -- -- 83
2017-11-17 15:00:00 13 4 Noroeste 11 Noroeste 0 -- -- 75
2017-11-17 14:00:00 13.4 6 Norte 13 Norte 0 -- -- 74
2017-11-17 13:00:00 12.8 4 Norte 11 Noroeste 0 -- -- 75
2017-11-17 12:00:00 11.9 4 Noroeste 9 Sudeste 0 -- -- 81
2017-11-17 11:00:00 9.4 3 Sudeste 8 Sudeste 0 -- -- 93
2017-11-17 10:00:00 6.8 0 Calma 2 Sur 0 -- -- 100
2017-11-17 09:00:00 6 0 Calma 3 Sudoeste 0 -- -- 100
2017-11-17 08:00:00 5.1 3 Sudoeste 5 Sudeste 0 -- -- 100
2017-11-17 07:00:00 4.7 0 Calma 4 Sur 0 -- -- 100
2017-11-17 06:00:00 5.2 3 Sur 4 Sur 0 -- -- 99
2017-11-17 05:00:00 5.4 5 Sur 6 Sur 0 -- -- 99
2017-11-17 04:00:00 5.5 3 Sudoeste 6 Sur 0 -- -- 97
2017-11-17 03:00:00 5.3 2 Sur 7 Sur 0 -- -- 98
2017-11-17 02:00:00 5.3 0 Calma 6 Sur 0 -- -- 97
2017-11-17 01:00:00 5.4 3 Sudoeste 5 Sur 0 -- -- 96
2017-11-17 00:00:00 5.8 2 Sudoeste 4 Sudoeste 0 -- -- 94
2017-11-16 23:00:00 6.2 2 Sudoeste 4 Sur 0 -- -- 94
2017-11-16 22:00:00 6.6 3 Sudoeste 5 Sudoeste 0 -- -- 88
2017-11-16 21:00:00 6.7 3 Sur 5 Sudoeste 0 -- -- 87
2017-11-16 20:00:00 6.9 3 Sudoeste 5 Sur 0 -- -- 84
2017-11-16 19:00:00 7.4 3 Oeste 8 Oeste 0 -- -- 86
2017-11-16 18:00:00 8.1 3 Oeste 9 Noroeste 0 -- -- 80
2017-11-16 17:00:00 9.8 5 Oeste 9 Oeste 0 -- -- 79
2017-11-16 16:00:00 12.1 5 Oeste 12 Oeste 0 -- -- 63
2017-11-16 15:00:00 13.2 5 Oeste 13 Oeste 0 -- -- 58
2017-11-16 14:00:00 14 3 Noroeste 15 Oeste 0 -- -- 57
2017-11-16 13:00:00 13.2 7 Noroeste 17 Noroeste 0 -- -- 50
2017-11-16 12:00:00 12.3 6 Oeste 14 Oeste 0 -- -- 51
2017-11-16 11:00:00 9.3 0 Calma 13 Sudeste 0 -- -- 77
2017-11-16 10:00:00 6.6 7 Sudeste 12 Sudeste 0 -- -- 82
2017-11-16 09:00:00 5.5 8 Sudeste 10 Sudeste 0 -- -- 79
2017-11-16 08:00:00 4.8 9 Sur 13 Sudeste 0 -- -- 80
2017-11-16 07:00:00 5.4 5 Sur 11 Sudeste 0 -- -- 78
2017-11-16 06:00:00 4.3 6 Sur 14 Sudeste 0 -- -- 87
2017-11-16 05:00:00 4.4 6 Sur 12 Sudeste 0 -- -- 88
2017-11-16 04:00:00 4.5 9 Sudeste 12 Sudeste 0 -- -- 90
2017-11-16 03:00:00 4.1 5 Sur 12 Sudeste 0 -- -- 94
2017-11-16 02:00:00 4.2 4 Sur 8 Sur 0 -- -- 92
2017-11-16 01:00:00 3.9 4 Sur 9 Sudeste 0 -- -- 95
2017-11-16 00:00:00 4 4 Sur 7 Sur 0 -- -- 94
2017-11-15 23:00:00 4 3 Sur 6 Sudoeste 0 -- -- 92
2017-11-15 22:00:00 4 3 Sur 6 Sur 0 -- -- 91
2017-11-15 21:00:00 4.5 4 Sur 8 Sudeste 0 -- -- 90
2017-11-15 20:00:00 4.3 3 Sur 4 Oeste 0 -- -- 89
2017-11-15 19:00:00 4.8 3 Sudoeste 6 Sudoeste 0 -- -- 87
2017-11-15 18:00:00 5.8 6 Sudoeste 7 Sudoeste 0 -- -- 86
2017-11-15 17:00:00 6.8 5 Sudoeste 8 Oeste 0 -- -- 84
2017-11-15 16:00:00 9.4 4 Oeste 6 Oeste 0 -- -- 73
2017-11-15 15:00:00 10.3 3 Oeste 6 Oeste 0 -- -- 67
2017-11-15 14:00:00 10.2 2 Sudeste 5 Este 0 -- -- 69
2017-11-15 13:00:00 9.9 2 Norte 6 Noroeste 0 -- -- 71
2017-11-15 12:00:00 8.4 2 Sudeste 5 Sur 0 -- -- 70
2017-11-15 11:00:00 6.3 2 Este 7 Sudeste 0 -- -- 80
2017-11-15 10:00:00 2.7 4 Sudeste 12 Sudeste 0 -- -- 100
2017-11-15 09:00:00 1.3 2 Sudoeste 10 Sur 0 -- -- 100
2017-11-15 08:00:00 0.9 3 Sudoeste 5 Oeste 0 -- -- 100
2017-11-15 07:00:00 0.7 3 Sur 6 Sudeste 0 -- -- 98
2017-11-15 06:00:00 0.8 2 Sudoeste 5 Sudoeste 0 -- -- 99
2017-11-15 05:00:00 0.9 3 Sudoeste 5 Sudoeste 0 -- -- 100
2017-11-15 04:00:00 1.3 2 Oeste 6 Sudoeste 0 -- -- 100
2017-11-15 03:00:00 1.5 3 Sudoeste 6 Sudeste 0 -- -- 100
2017-11-15 02:00:00 1.6 0 Calma 6 Sudoeste 0 -- -- 100
2017-11-15 01:00:00 1.9 4 Sudoeste 6 Sudoeste 0 -- -- 100
2017-11-15 00:00:00 2.5 4 Sudoeste 5 Sudoeste 0 -- -- 100